createdAt,value
2022-10-19T00:01:15.065Z,93.30
2022-10-19T00:03:42.608Z,93.20
2022-10-19T00:06:26.253Z,93.20
2022-10-19T00:09:03.588Z,93.40
2022-10-19T00:11:31.481Z,93.30
2022-10-19T00:14:01.223Z,93.30
2022-10-19T00:16:29.937Z,93.20
2022-10-19T00:18:58.271Z,93.20
2022-10-19T00:21:25.477Z,93.30
2022-10-19T00:23:52.549Z,93.20
2022-10-19T00:26:19.867Z,94.00
2022-10-19T00:28:47.277Z,93.40
2022-10-19T00:31:16.207Z,93.50
2022-10-19T00:33:44.528Z,93.70
2022-10-19T00:36:16.849Z,93.80
2022-10-19T00:38:44.051Z,93.70
2022-10-19T00:41:11.251Z,93.50
2022-10-19T00:44:14.091Z,93.60
2022-10-19T00:46:42.795Z,93.60
2022-10-19T00:49:18.274Z,93.60
2022-10-19T00:51:47.214Z,93.80
2022-10-19T00:54:14.624Z,93.80
2022-10-19T00:56:42.892Z,94.10
2022-10-19T00:59:10.141Z,94.10
2022-10-19T01:01:39.799Z,94.80
2022-10-19T01:04:07.016Z,94.50
2022-10-19T01:06:34.142Z,94.50
2022-10-19T01:09:01.769Z,94.50
2022-10-19T01:11:52.523Z,94.40
2022-10-19T01:14:47.644Z,94.40
2022-10-19T01:17:59.932Z,94.40
2022-10-19T01:20:30.836Z,94.50
2022-10-19T01:23:40.422Z,94.40
2022-10-19T01:26:14.693Z,94.60
2022-10-19T01:28:54.265Z,94.60
2022-10-19T01:31:29.836Z,94.90
2022-10-19T01:34:09.054Z,94.80
2022-10-19T01:36:39.378Z,94.80
2022-10-19T01:39:44.215Z,94.80
2022-10-19T01:42:15.452Z,94.80
2022-10-19T01:44:53.503Z,94.70
2022-10-19T01:47:28.338Z,94.80
2022-10-19T01:50:10.395Z,95.00
2022-10-19T01:52:37.848Z,95.00
2022-10-19T01:55:05.430Z,95.20
2022-10-19T01:57:38.917Z,95.00
2022-10-19T02:00:07.677Z,95.00
2022-10-19T02:02:43.385Z,95.10
2022-10-19T02:05:10.542Z,95.10
2022-10-19T02:07:38.114Z,95.10
2022-10-19T02:10:05.986Z,95.20
2022-10-19T02:12:33.402Z,95.20
2022-10-19T02:15:10.412Z,95.20
2022-10-19T02:17:40.882Z,95.10
2022-10-19T02:20:08.041Z,95.00
2022-10-19T02:22:35.525Z,94.80
2022-10-19T02:25:03.542Z,94.80
2022-10-19T02:27:33.790Z,94.60
2022-10-19T02:30:04.000Z,94.50
2022-10-19T02:32:31.851Z,94.00
2022-10-19T02:34:59.819Z,93.90
2022-10-19T02:37:27.206Z,93.60
2022-10-19T02:39:54.353Z,93.30
2022-10-19T02:42:39.009Z,93.10
2022-10-19T02:45:10.826Z,92.80
2022-10-19T02:47:43.031Z,92.70
2022-10-19T02:50:10.488Z,92.10
2022-10-19T02:52:41.178Z,91.80
2022-10-19T02:55:08.790Z,91.30
2022-10-19T02:57:36.423Z,91.20
2022-10-19T03:00:05.862Z,91.20
2022-10-19T03:02:34.636Z,90.80
2022-10-19T03:05:01.848Z,91.00
2022-10-19T03:07:28.929Z,91.10
2022-10-19T03:09:56.033Z,90.80
2022-10-19T03:12:23.439Z,90.80
2022-10-19T03:14:50.515Z,90.60
2022-10-19T03:17:17.648Z,90.80
2022-10-19T03:19:44.939Z,90.80
2022-10-19T03:22:13.951Z,90.50
2022-10-19T03:24:41.500Z,90.20
2022-10-19T03:27:08.794Z,90.30
2022-10-19T03:29:35.894Z,90.10
2022-10-19T03:32:03.000Z,90.00
2022-10-19T03:34:30.660Z,89.90
2022-10-19T03:36:59.820Z,90.00
2022-10-19T03:39:27.082Z,90.00
2022-10-19T03:41:54.205Z,89.90
2022-10-19T03:44:21.346Z,89.60
2022-10-19T03:46:48.609Z,89.40
2022-10-19T03:49:15.815Z,89.30
2022-10-19T03:51:42.961Z,89.50
2022-10-19T03:54:15.069Z,89.40
2022-10-19T03:56:42.421Z,89.20
2022-10-19T03:59:12.643Z,89.20
2022-10-19T04:01:41.193Z,89.10
2022-10-19T04:04:11.606Z,89.20
2022-10-19T04:06:39.923Z,89.20
2022-10-19T04:09:07.438Z,89.40
2022-10-19T04:11:35.004Z,89.50
2022-10-19T04:14:02.593Z,89.50
2022-10-19T04:16:33.340Z,89.50
2022-10-19T04:19:01.006Z,89.50
2022-10-19T04:21:29.035Z,89.40
2022-10-19T04:24:01.500Z,89.60
2022-10-19T04:26:28.756Z,89.90
2022-10-19T04:28:58.593Z,90.00
2022-10-19T04:31:26.216Z,89.90
2022-10-19T04:33:53.326Z,90.00
2022-10-19T04:36:20.477Z,89.90
2022-10-19T04:38:47.701Z,90.00
2022-10-19T04:41:16.419Z,90.20
2022-10-19T04:43:45.403Z,90.70
2022-10-19T04:46:17.638Z,90.90
2022-10-19T04:48:45.497Z,90.80
2022-10-19T04:51:12.870Z,91.00
2022-10-19T04:53:40.534Z,91.40
2022-10-19T04:56:08.991Z,91.30
2022-10-19T04:58:36.201Z,91.20
2022-10-19T05:01:10.319Z,91.60
2022-10-19T05:03:37.461Z,91.40
2022-10-19T05:06:04.889Z,91.60
2022-10-19T05:08:32.323Z,91.70
2022-10-19T05:11:06.708Z,91.70
2022-10-19T05:13:34.205Z,91.90
2022-10-19T05:16:02.148Z,91.90
2022-10-19T05:18:29.748Z,92.10
2022-10-19T05:21:10.846Z,92.20
2022-10-19T05:23:40.412Z,92.10
2022-10-19T05:26:15.642Z,92.30
2022-10-19T05:28:42.769Z,92.20
2022-10-19T05:31:18.119Z,92.30
2022-10-19T05:33:45.745Z,92.60
2022-10-19T05:36:32.558Z,92.80
2022-10-19T05:39:06.679Z,93.60
2022-10-19T05:41:33.989Z,92.80
2022-10-19T05:44:02.295Z,93.00
2022-10-19T05:46:29.988Z,93.10
2022-10-19T05:48:57.670Z,93.00
2022-10-19T05:51:25.255Z,93.10
2022-10-19T05:53:53.644Z,93.40
2022-10-19T05:56:22.514Z,93.40
2022-10-19T05:58:49.957Z,93.40
2022-10-19T06:01:19.106Z,93.60
2022-10-19T06:03:46.880Z,93.80
2022-10-19T06:06:13.970Z,93.90
2022-10-19T06:08:41.055Z,94.00
2022-10-19T06:11:10.119Z,93.80
2022-10-19T06:13:37.782Z,93.80
2022-10-19T06:16:06.206Z,93.90
2022-10-19T06:18:33.911Z,93.90
2022-10-19T06:21:05.170Z,93.80
2022-10-19T06:23:35.614Z,94.00
2022-10-19T06:26:03.650Z,94.10
2022-10-19T06:28:33.681Z,93.80
2022-10-19T06:31:01.157Z,93.70
2022-10-19T06:33:28.426Z,93.60
2022-10-19T06:35:55.701Z,93.50
2022-10-19T06:38:23.529Z,93.40
2022-10-19T06:40:50.786Z,93.40
2022-10-19T06:43:18.129Z,93.30
2022-10-19T06:45:45.543Z,93.30
2022-10-19T06:48:12.664Z,93.20
2022-10-19T06:50:59.860Z,93.30
2022-10-19T06:53:29.788Z,93.00
2022-10-19T06:56:01.038Z,93.10
2022-10-19T06:58:28.374Z,93.10
2022-10-19T07:00:59.766Z,92.90
2022-10-19T07:03:28.069Z,92.60
2022-10-19T07:06:02.587Z,92.20
2022-10-19T07:08:31.187Z,91.90
2022-10-19T07:11:02.889Z,91.70
2022-10-19T07:13:30.927Z,91.50
2022-10-19T07:16:06.961Z,91.30
2022-10-19T07:18:34.955Z,91.00
2022-10-19T07:21:03.345Z,90.80
2022-10-19T07:23:31.738Z,90.50
2022-10-19T07:26:04.052Z,90.50
2022-10-19T07:28:35.360Z,89.50
2022-10-19T07:31:10.140Z,89.40
2022-10-19T07:33:37.657Z,88.90
2022-10-19T07:36:07.150Z,88.50
2022-10-19T07:38:34.295Z,88.10
2022-10-19T07:41:07.125Z,88.10
2022-10-19T07:43:34.386Z,87.70
2022-10-19T07:46:02.762Z,87.50
2022-10-19T07:48:30.066Z,86.50
2022-10-19T07:50:57.318Z,86.60
2022-10-19T07:53:24.614Z,86.20
2022-10-19T07:55:52.336Z,85.80
2022-10-19T07:58:19.415Z,85.70
2022-10-19T08:00:46.592Z,85.40
2022-10-19T08:06:05.558Z,83.40
2022-10-19T08:08:32.834Z,83.30
2022-10-19T08:11:10.096Z,82.80
2022-10-19T08:13:37.387Z,83.40
2022-10-19T08:16:04.917Z,82.60
2022-10-19T08:21:04.767Z,81.60
2022-10-19T08:23:31.845Z,82.00
2022-10-19T08:25:59.781Z,81.90
2022-10-19T08:28:27.004Z,81.10
2022-10-19T08:30:58.390Z,81.20
2022-10-19T08:33:26.247Z,80.10
2022-10-19T08:36:11.594Z,79.50
2022-10-19T08:38:38.936Z,79.80
2022-10-19T08:41:26.750Z,79.50
2022-10-19T08:43:54.099Z,78.80
2022-10-19T08:46:36.427Z,78.30
2022-10-19T08:49:03.834Z,77.90
2022-10-19T08:51:34.378Z,77.60
2022-10-19T08:54:02.702Z,76.60
2022-10-19T08:56:51.073Z,76.70
2022-10-19T08:59:18.412Z,77.30
2022-10-19T09:01:59.019Z,76.60
2022-10-19T09:04:38.216Z,75.90
2022-10-19T09:07:23.798Z,75.50
2022-10-19T09:10:10.356Z,75.70
2022-10-19T09:12:40.612Z,75.20
2022-10-19T09:15:08.017Z,74.90
2022-10-19T09:17:35.550Z,75.80
2022-10-19T09:20:14.972Z,74.30
2022-10-19T09:22:42.390Z,73.60
2022-10-19T09:25:22.276Z,73.80
2022-10-19T09:27:53.506Z,74.30
2022-10-19T09:30:22.951Z,73.80
2022-10-19T09:33:03.450Z,75.10
2022-10-19T09:35:39.568Z,74.30
2022-10-19T09:38:07.379Z,74.30
2022-10-19T09:40:35.268Z,73.20
2022-10-19T09:43:19.164Z,72.50
2022-10-19T09:45:53.544Z,72.40
2022-10-19T09:48:40.161Z,71.40
2022-10-19T09:51:12.314Z,69.80
2022-10-19T09:53:46.123Z,70.70
2022-10-19T09:56:24.643Z,70.70
2022-10-19T09:58:57.595Z,70.00
2022-10-19T10:01:41.914Z,69.40
2022-10-19T10:04:17.230Z,68.00
2022-10-19T10:06:46.509Z,69.00
2022-10-19T10:09:18.108Z,68.10
2022-10-19T10:12:18.011Z,67.70
2022-10-19T10:14:48.512Z,67.80
2022-10-19T10:17:21.092Z,68.40
2022-10-19T10:20:02.777Z,69.30
2022-10-19T10:22:44.933Z,69.30
2022-10-19T10:25:16.996Z,68.60
2022-10-19T10:27:58.432Z,68.80
2022-10-19T10:30:25.743Z,68.60
2022-10-19T10:32:57.991Z,68.20
2022-10-19T10:35:35.539Z,67.90
2022-10-19T10:38:14.885Z,68.40
2022-10-19T10:41:20.252Z,67.60
2022-10-19T10:44:41.157Z,68.50
2022-10-19T10:47:21.481Z,67.40
2022-10-19T10:50:21.915Z,67.90
2022-10-19T10:53:00.742Z,68.30
2022-10-19T10:55:28.775Z,67.30
2022-10-19T10:58:18.880Z,67.20
2022-10-19T11:00:46.402Z,67.70
2022-10-19T11:03:16.239Z,67.90
2022-10-19T11:05:48.182Z,67.60
2022-10-19T11:08:38.512Z,66.70
2022-10-19T11:11:10.796Z,65.10
2022-10-19T11:13:53.377Z,64.90
2022-10-19T11:16:24.374Z,65.40
2022-10-19T11:19:16.040Z,66.00
2022-10-19T11:22:04.251Z,67.00
2022-10-19T11:24:49.060Z,65.80
2022-10-19T11:27:30.322Z,67.10
2022-10-19T11:30:13.950Z,68.70
2022-10-19T11:32:59.776Z,68.20
2022-10-19T11:35:47.675Z,69.20
2022-10-19T11:38:40.589Z,68.10
2022-10-19T11:41:30.975Z,68.80
2022-10-19T11:44:19.667Z,67.90
2022-10-19T11:47:05.001Z,68.40
2022-10-19T11:49:39.834Z,67.70
2022-10-19T11:52:18.708Z,67.30
2022-10-19T11:55:14.030Z,68.50
2022-10-19T11:57:53.458Z,67.20
2022-10-19T12:00:38.263Z,67.70
2022-10-19T12:03:25.609Z,69.00
2022-10-19T12:06:12.109Z,68.60
2022-10-19T12:08:42.664Z,68.70
2022-10-19T12:11:54.507Z,69.50
2022-10-19T12:14:31.108Z,68.80
2022-10-19T12:17:06.027Z,68.10
2022-10-19T12:19:39.578Z,69.00
2022-10-19T12:22:07.615Z,68.70
2022-10-19T12:24:34.799Z,67.90
2022-10-19T12:27:01.969Z,68.00
2022-10-19T12:29:36.683Z,67.20
2022-10-19T12:32:04.044Z,66.90
2022-10-19T12:38:05.749Z,66.80
2022-10-19T12:40:58.861Z,67.80
2022-10-19T12:43:36.734Z,67.20
2022-10-19T12:46:49.904Z,66.60
2022-10-19T12:49:50.743Z,67.00
2022-10-19T12:52:48.891Z,67.40
2022-10-19T12:55:16.179Z,68.40
2022-10-19T12:57:48.412Z,66.80
2022-10-19T13:00:26.020Z,67.00
2022-10-19T13:03:16.360Z,66.20
2022-10-19T13:05:43.468Z,66.80
2022-10-19T13:08:33.204Z,66.60
2022-10-19T13:11:10.244Z,67.30
2022-10-19T13:14:07.530Z,67.50
2022-10-19T13:16:37.838Z,66.20
2022-10-19T13:19:06.223Z,67.00
2022-10-19T13:21:46.072Z,67.40
2022-10-19T13:24:25.453Z,67.70
2022-10-19T13:27:11.068Z,67.90
2022-10-19T13:29:42.038Z,67.60
2022-10-19T13:32:38.444Z,67.80
2022-10-19T13:35:21.227Z,68.70
2022-10-19T13:38:18.595Z,68.50
2022-10-19T13:40:50.002Z,68.60
2022-10-19T13:43:22.854Z,68.80
2022-10-19T13:45:59.902Z,70.40
2022-10-19T13:48:56.417Z,69.70
2022-10-19T13:51:27.866Z,70.80
2022-10-19T13:54:25.921Z,70.20
2022-10-19T13:57:19.173Z,70.10
2022-10-19T14:00:20.478Z,70.20
2022-10-19T14:03:19.558Z,70.80
2022-10-19T14:06:05.213Z,70.60
2022-10-19T14:08:58.110Z,70.70
2022-10-19T14:11:32.732Z,70.90
2022-10-19T14:14:18.484Z,71.40
2022-10-19T14:16:59.646Z,72.40
2022-10-19T14:19:31.079Z,72.30
2022-10-19T14:22:03.021Z,71.90
2022-10-19T14:24:35.130Z,71.70
2022-10-19T14:27:08.980Z,71.80
2022-10-19T14:29:49.646Z,71.50
2022-10-19T14:32:17.674Z,71.50
2022-10-19T14:34:46.314Z,71.70
2022-10-19T14:37:18.368Z,71.10
2022-10-19T14:40:07.687Z,71.40
2022-10-19T14:42:42.537Z,70.40
2022-10-19T14:45:15.137Z,70.80
2022-10-19T14:47:56.846Z,71.00
2022-10-19T14:50:35.120Z,70.50
2022-10-19T14:53:17.136Z,70.20
2022-10-19T14:55:44.263Z,71.20
2022-10-19T14:58:18.915Z,72.10
2022-10-19T15:00:52.124Z,71.30
2022-10-19T15:03:42.871Z,70.80
2022-10-19T15:06:24.458Z,71.20
2022-10-19T15:09:30.245Z,71.50
2022-10-19T15:12:12.378Z,71.10
2022-10-19T15:14:52.194Z,70.30
2022-10-19T15:17:51.223Z,70.70
2022-10-19T15:23:56.268Z,71.20
2022-10-19T15:26:42.204Z,72.20
2022-10-19T15:29:37.516Z,72.60
2022-10-19T15:32:33.932Z,73.80
2022-10-19T15:35:51.943Z,73.90
2022-10-19T15:38:34.512Z,74.30
2022-10-19T15:41:20.293Z,74.20
2022-10-19T15:43:54.151Z,74.40
2022-10-19T15:46:34.548Z,74.40
2022-10-19T15:49:25.776Z,75.10
2022-10-19T15:51:54.157Z,75.10
2022-10-19T15:54:22.038Z,75.50
2022-10-19T15:56:52.527Z,76.00
2022-10-19T15:59:21.515Z,76.20
2022-10-19T16:01:52.634Z,76.70
2022-10-19T16:04:26.981Z,77.10
2022-10-19T16:06:54.084Z,77.20
2022-10-19T16:09:21.736Z,77.70
2022-10-19T16:11:50.333Z,77.80
2022-10-19T16:16:44.487Z,78.50
2022-10-19T16:19:12.292Z,78.60
2022-10-19T16:21:39.638Z,79.00
2022-10-19T16:24:06.956Z,79.10
2022-10-19T16:26:34.294Z,79.00
2022-10-19T16:29:07.378Z,79.40
2022-10-19T16:31:34.500Z,79.50
2022-10-19T16:34:01.865Z,79.80
2022-10-19T16:36:29.775Z,80.20
2022-10-19T16:38:59.783Z,80.30
2022-10-19T16:41:27.140Z,80.50
2022-10-19T16:43:55.259Z,80.50
2022-10-19T16:46:23.167Z,81.10
2022-10-19T16:48:50.480Z,81.30
2022-10-19T16:51:26.627Z,81.30
2022-10-19T16:53:57.247Z,81.50
2022-10-19T16:56:25.402Z,81.50
2022-10-19T16:59:01.281Z,81.70
2022-10-19T17:01:31.520Z,82.90
2022-10-19T17:03:58.790Z,82.10
2022-10-19T17:06:26.480Z,82.40
2022-10-19T17:09:30.180Z,82.20
2022-10-19T17:11:42.748Z,82.40
2022-10-19T17:14:12.305Z,82.40
2022-10-19T17:16:39.896Z,82.50
2022-10-19T17:19:09.642Z,82.60
2022-10-19T17:21:38.851Z,82.60
2022-10-19T17:24:07.864Z,82.90
2022-10-19T17:26:38.234Z,82.70
2022-10-19T17:29:06.175Z,83.00
2022-10-19T17:31:33.704Z,82.80
2022-10-19T17:34:06.336Z,83.00
2022-10-19T17:36:42.356Z,82.80
2022-10-19T17:39:25.539Z,83.00
2022-10-19T17:42:04.433Z,83.30
2022-10-19T17:44:34.385Z,83.30
2022-10-19T17:47:04.454Z,83.70
2022-10-19T17:49:32.866Z,83.50
2022-10-19T17:52:03.602Z,83.60
2022-10-19T17:54:48.573Z,84.00
2022-10-19T17:57:37.887Z,83.80
2022-10-19T18:00:09.971Z,83.60
2022-10-19T18:02:41.034Z,83.30
2022-10-19T18:05:09.268Z,83.60
2022-10-19T18:07:36.963Z,83.60
2022-10-19T18:10:04.713Z,83.80
2022-10-19T18:12:32.023Z,84.00
2022-10-19T18:14:59.913Z,84.50
2022-10-19T18:17:27.919Z,84.20
2022-10-19T18:19:55.648Z,84.30
2022-10-19T18:22:23.509Z,84.30
2022-10-19T18:24:50.811Z,84.30
2022-10-19T18:27:18.073Z,84.20
2022-10-19T18:29:45.536Z,84.10
2022-10-19T18:32:13.031Z,84.00
2022-10-19T18:34:40.239Z,83.80
2022-10-19T18:37:07.535Z,83.70
2022-10-19T18:39:34.963Z,83.90
2022-10-19T18:42:02.397Z,83.80
2022-10-19T18:44:33.504Z,83.90
2022-10-19T18:47:04.312Z,84.00
2022-10-19T18:49:31.574Z,83.90
2022-10-19T18:51:58.797Z,84.00
2022-10-19T18:54:29.067Z,84.10
2022-10-19T18:56:56.931Z,83.70
2022-10-19T18:59:25.147Z,84.20
2022-10-19T19:01:54.869Z,84.20
2022-10-19T19:04:21.978Z,84.50
2022-10-19T19:06:49.810Z,84.20
2022-10-19T19:09:19.095Z,84.50
2022-10-19T19:11:46.345Z,84.60
2022-10-19T19:14:15.179Z,84.70
2022-10-19T19:16:42.920Z,84.60
2022-10-19T19:19:11.221Z,85.00
2022-10-19T19:21:38.627Z,85.00
2022-10-19T19:24:07.033Z,85.10
2022-10-19T19:26:38.042Z,85.10
2022-10-19T19:29:05.647Z,85.30
2022-10-19T19:31:32.924Z,85.30
2022-10-19T19:34:01.569Z,85.30
2022-10-19T19:36:29.046Z,85.30
2022-10-19T19:39:00.077Z,85.40
2022-10-19T19:41:29.092Z,85.40
2022-10-19T19:44:00.625Z,85.30
2022-10-19T19:46:27.961Z,85.30
2022-10-19T19:49:00.196Z,85.30
2022-10-19T19:51:30.896Z,85.40
2022-10-19T19:54:02.583Z,85.40
2022-10-19T19:56:35.667Z,85.70
2022-10-19T19:59:05.446Z,85.70
2022-10-19T20:01:36.025Z,85.50
2022-10-19T20:06:36.491Z,85.80
2022-10-19T20:09:04.148Z,85.70
2022-10-19T20:11:37.155Z,86.10
2022-10-19T20:14:21.045Z,85.70
2022-10-19T20:19:43.831Z,86.10
2022-10-19T20:22:11.419Z,86.00
2022-10-19T20:25:07.590Z,86.00
2022-10-19T20:27:51.683Z,86.00
2022-10-19T20:34:20.583Z,86.10
2022-10-19T20:40:54.768Z,86.70
2022-10-19T20:43:50.675Z,86.70
2022-10-19T20:46:37.803Z,87.00
2022-10-19T20:49:13.851Z,87.10
2022-10-19T20:51:44.031Z,87.30
2022-10-19T20:54:15.001Z,87.50
2022-10-19T20:56:42.482Z,87.60
2022-10-19T20:59:12.993Z,87.90
2022-10-19T21:01:40.436Z,88.20
2022-10-19T21:04:09.036Z,88.60
2022-10-19T21:06:39.324Z,88.80
2022-10-19T21:09:06.768Z,89.20
2022-10-19T21:11:35.812Z,89.40
2022-10-19T21:18:19.860Z,89.50
2022-10-19T21:33:27.150Z,90.60
2022-10-19T21:40:29.421Z,90.00
2022-10-19T21:49:40.065Z,89.30
2022-10-19T22:59:37.372Z,91.00
2022-10-19T23:05:32.483Z,91.40
2022-10-19T23:08:33.914Z,91.30
2022-10-19T23:11:22.762Z,91.70
2022-10-19T23:13:52.360Z,91.90
2022-10-19T23:16:25.933Z,91.80
2022-10-19T23:18:54.747Z,91.80
2022-10-19T23:21:25.792Z,91.60
2022-10-19T23:23:55.561Z,91.80
2022-10-19T23:26:26.595Z,91.70
2022-10-19T23:28:55.148Z,91.30
2022-10-19T23:31:26.992Z,90.90
2022-10-19T23:33:57.469Z,90.70
2022-10-19T23:36:38.742Z,90.40
2022-10-19T23:39:24.517Z,90.40
2022-10-19T23:45:47.866Z,91.50
